»·PEaware :: N171MA L22-KTOA

N171MA :: L22-KTOA

FLIGHT INFORMATION

Flight Status: Arrived
Operator: Privately registered:
United States
More flights under this callsign
Pilot: Tim M. (868)
Aircraft: CESSNA 172 SKYHAWK
(C172)
More flights by this aircraft type
Origin: L22 Yucca Valley
United States
Destination: KTOA Zamperini
United States
More flights between these airports :: More routes between these airports
Route: +
File this flight plan on PilotEdge
Remarks:
Altitude:
(Current/Filed)
4,500ft
Speed:
(Current/Filed)
100kts
Departed: 07-Sep-20 02:06 PM
Arrived: 07-Sep-20 03:26 PM
Distance/Time
Traveled:
98nm/1:19
Distance/Time
To Go:
Arrived

Flight Plot

Page will automatically refresh every two minutes.

Flight plan parsing failed; only flown route is shown


Map Options




Map Legend


Flown Route
Filed Route
Departure Airport
Arrival Airport
Navaid (VOR, NDB)
Fix

Horizontal Profiles

Position Reports

Time Latitude Longitude Heading Altitude Ground
Speed
07-Sep-20 13:37 34.129033 -116.405814 351 3215ft 0kts
07-Sep-20 13:38 34.129040 -116.405815 349 3215ft 0kts
07-Sep-20 13:39 34.129038 -116.405815 349 3215ft 0kts
07-Sep-20 13:40 34.129033 -116.405815 349 3215ft 0kts
07-Sep-20 13:41 34.129033 -116.405815 349 3215ft 0kts
07-Sep-20 13:42 34.129019 -116.405812 349 3215ft 0kts
07-Sep-20 13:43 34.128937 -116.405795 349 3215ft 0kts
07-Sep-20 13:44 34.128881 -116.406744 262 3216ft 4kts
07-Sep-20 13:45 34.128866 -116.406816 262 3216ft 0kts
07-Sep-20 13:46 34.128863 -116.407067 285 3216ft 0kts
07-Sep-20 13:47 34.128863 -116.407067 285 3216ft 0kts
07-Sep-20 13:48 34.128863 -116.407067 285 3216ft 0kts
07-Sep-20 13:49 34.128863 -116.407067 285 3216ft 0kts
07-Sep-20 13:50 34.128863 -116.407067 285 3216ft 0kts
07-Sep-20 13:51 34.128863 -116.407067 285 3216ft 0kts
07-Sep-20 13:52 34.128863 -116.407067 285 3216ft 0kts
07-Sep-20 13:53 34.128863 -116.407067 285 3216ft 0kts
07-Sep-20 13:54 34.128863 -116.407067 285 3216ft 0kts
07-Sep-20 13:55 34.128863 -116.407067 285 3216ft 0kts
07-Sep-20 13:56 34.128863 -116.407067 285 3216ft 0kts
07-Sep-20 13:57 34.128863 -116.407067 285 3216ft 0kts
07-Sep-20 13:58 34.128863 -116.407067 285 3216ft 0kts
07-Sep-20 13:59 34.128863 -116.407067 285 3216ft 0kts
07-Sep-20 14:00 34.128888 -116.408174 265 3216ft 4kts
07-Sep-20 14:01 34.128892 -116.409035 274 3216ft 6kts
07-Sep-20 14:02 34.128909 -116.409192 278 3217ft 0kts
07-Sep-20 14:03 34.128912 -116.409227 273 3217ft 2kts
07-Sep-20 14:04 34.128267 -116.412129 250 3223ft 12kts
07-Sep-20 14:05 34.131744 -116.400274 71 3296ft 76kts
07-Sep-20 14:06 34.126642 -116.394603 253 3783ft 71kts
07-Sep-20 14:07 34.121241 -116.418933 255 4298ft 78kts
07-Sep-20 14:08 34.114048 -116.450683 253 4366ft 108kts
07-Sep-20 14:09 34.105679 -116.485568 253 4366ft 109kts
07-Sep-20 14:10 34.092453 -116.518600 241 4365ft 109kts
07-Sep-20 14:11 34.076070 -116.549332 236 4364ft 109kts
07-Sep-20 14:12 34.054711 -116.575224 218 4363ft 109kts
07-Sep-20 14:13 34.031191 -116.597106 216 4450ft 105kts
07-Sep-20 14:14 34.005527 -116.615729 209 4459ft 109kts
07-Sep-20 14:15 33.978943 -116.633220 209 4452ft 109kts
07-Sep-20 14:16 33.966148 -116.665348 250 4447ft 107kts
07-Sep-20 14:17 33.956437 -116.699365 249 4450ft 111kts
07-Sep-20 14:18 33.946450 -116.734431 250 4453ft 111kts
07-Sep-20 14:19 33.936939 -116.769729 255 4450ft 110kts
07-Sep-20 14:20 33.929630 -116.805713 255 4445ft 110kts
07-Sep-20 14:21 33.924442 -116.842048 267 4439ft 110kts
07-Sep-20 14:22 33.923737 -116.879118 267 4437ft 110kts
07-Sep-20 14:23 33.922987 -116.916344 267 4433ft 111kts
07-Sep-20 14:24 33.922221 -116.953294 267 4429ft 111kts
07-Sep-20 14:25 33.925491 -116.989669 295 4424ft 112kts
07-Sep-20 14:26 33.939103 -117.023505 294 4422ft 112kts
07-Sep-20 14:27 33.952737 -117.057428 294 4404ft 114kts
07-Sep-20 14:28 33.966324 -117.091276 294 4418ft 112kts
07-Sep-20 14:29 33.977481 -117.126088 284 4409ft 111kts
07-Sep-20 14:30 33.985076 -117.161856 272 4410ft 110kts
07-Sep-20 14:31 33.983869 -117.198770 266 4398ft 109kts
07-Sep-20 14:32 33.982399 -117.235456 266 4400ft 111kts
07-Sep-20 14:33 33.980901 -117.273141 266 4391ft 112kts
07-Sep-20 14:34 33.970543 -117.307808 244 4394ft 111kts
07-Sep-20 14:35 33.958939 -117.342594 248 4382ft 111kts
07-Sep-20 14:36 33.947796 -117.377254 248 4379ft 111kts
07-Sep-20 14:37 33.936663 -117.411990 248 4374ft 111kts
07-Sep-20 14:38 33.924067 -117.446053 243 4369ft 111kts
07-Sep-20 14:39 33.910420 -117.479434 243 4364ft 111kts
07-Sep-20 14:40 33.896832 -117.512751 243 4359ft 111kts
07-Sep-20 14:41 33.883188 -117.546251 243 4355ft 111kts
07-Sep-20 14:42 33.877610 -117.581873 272 4348ft 111kts
07-Sep-20 14:43 33.879552 -117.619153 267 4344ft 111kts
07-Sep-20 14:44 33.876662 -117.656089 263 4342ft 111kts
07-Sep-20 14:46 33.874114 -117.693006 272 4335ft 111kts
07-Sep-20 14:47 33.876014 -117.730090 269 4334ft 111kts
07-Sep-20 14:48 33.874357 -117.767026 257 4330ft 110kts
07-Sep-20 14:49 33.868070 -117.803062 257 4326ft 110kts
07-Sep-20 14:50 33.862951 -117.839292 263 4322ft 110kts
07-Sep-20 14:51 33.863016 -117.874302 270 4319ft 110kts
07-Sep-20 14:52 33.863958 -117.911069 271 4316ft 110kts
07-Sep-20 14:53 33.865717 -117.947162 273 4358ft 109kts
07-Sep-20 14:54 33.864918 -117.983068 267 4411ft 108kts
07-Sep-20 14:55 33.865974 -118.019389 284 4407ft 111kts
07-Sep-20 14:56 33.880967 -118.050108 300 4138ft 108kts
07-Sep-20 14:57 33.884292 -118.084938 271 3464ft 108kts
07-Sep-20 14:58 33.885862 -118.119271 267 3308ft 100kts
07-Sep-20 14:58 33.886110 -118.148375 270 3102ft 105kts
07-Sep-20 15:00 33.888000 -118.189471 266 2861ft 105kts
07-Sep-20 15:01 33.875413 -118.220318 227 2609ft 109kts
07-Sep-20 15:02 33.849754 -118.237839 200 2420ft 101kts
07-Sep-20 15:03 33.825833 -118.255796 213 2390ft 105kts
07-Sep-20 15:03 33.802980 -118.260203 178 2307ft 106kts
07-Sep-20 15:04 33.775193 -118.261635 184 2402ft 108kts
07-Sep-20 15:06 33.739674 -118.264498 184 2400ft 110kts
07-Sep-20 15:07 33.709111 -118.266945 184 2403ft 109kts
07-Sep-20 15:07 33.683815 -118.268963 184 2405ft 109kts
07-Sep-20 15:08 33.653287 -118.273524 191 2180ft 114kts
07-Sep-20 15:09 33.623260 -118.281568 192 1926ft 104kts
07-Sep-20 15:10 33.595483 -118.289379 194 1929ft 102kts
07-Sep-20 15:11 33.567281 -118.298131 196 1906ft 103kts
07-Sep-20 15:12 33.541505 -118.295326 119 1956ft 107kts
07-Sep-20 15:13 33.559862 -118.271181 23 1917ft 111kts
07-Sep-20 15:14 33.587734 -118.256101 23 1941ft 109kts
07-Sep-20 15:15 33.615739 -118.241222 25 1978ft 105kts
07-Sep-20 15:16 33.644016 -118.228822 11 1954ft 111kts
07-Sep-20 15:17 33.671237 -118.213027 28 1901ft 101kts
07-Sep-20 15:18 33.697771 -118.208265 333 1951ft 100kts
07-Sep-20 15:19 33.722918 -118.224325 332 1962ft 102kts
07-Sep-20 15:20 33.743222 -118.248460 308 1928ft 104kts
07-Sep-20 15:21 33.759542 -118.272150 311 1620ft 85kts
07-Sep-20 15:22 33.774213 -118.294849 307 1085ft 74kts
07-Sep-20 15:23 33.787933 -118.315181 310 582ft 78kts
07-Sep-20 15:24 33.800833 -118.334713 309 109ft 65kts
07-Sep-20 15:25 33.805576 -118.342733 286 90ft 0kts
07-Sep-20 15:26 33.805694 -118.343157 286 91ft 13kts
07-Sep-20 15:27 33.804923 -118.346056 247 97ft 3kts
07-Sep-20 15:28 33.805257 -118.347428 156 94ft 2kts
07-Sep-20 15:29 33.805174 -118.347422 133 95ft 0kts
07-Sep-20 15:30 33.805174 -118.347422 133 95ft 0kts
07-Sep-20 15:31 33.805174 -118.347422 133 95ft 0kts
07-Sep-20 15:32 33.805174 -118.347422 133 95ft 0kts
07-Sep-20 15:33 33.805174 -118.347422 133 95ft 0kts
07-Sep-20 15:34 33.805174 -118.347422 133 95ft 0kts
07-Sep-20 15:35 33.805174 -118.347422 133 95ft 0kts
07-Sep-20 15:36 33.805174 -118.347422 133 95ft 0kts
07-Sep-20 15:37 33.805174 -118.347422 133 95ft 0kts
07-Sep-20 15:38 33.805174 -118.347422 133 95ft 0kts
07-Sep-20 15:39 33.805174 -118.347422 133 95ft 0kts

Navigation Log

Ident Type
Flight plan parsing failed, navigation log unavailable